Terminal Aerodrome Forecast
Issued by NWS

Home | Current Version | Previous Version | Text Only | Print | Product List | Glossary On
Versions: 1 2 3 4 5 6 7 8 9 10 11 12 13 14 15 16
000
FTUS41 KBTV 232320
TAFMSS
TAF
KMSS 232320Z 2400/2424 24006KT P6SM FEW200
     FM241000 17005KT P6SM VCSH OVC050
     FM241200 18008KT 1 1/2SM -SN BR SCT018 OVC025
     FM241500 19010KT 2SM -RASNPL BR SCT010 OVC015
     FM241800 22010KT 3SM -RA BR SCT008 OVC012=

USA.gov is the U.S. government's official web portal to all federal, state and local government web resources and services.